createdAt,value
2018-11-10T00:00:36.849Z,78.87
2018-11-10T00:03:06.383Z,97.50
2018-11-10T00:05:35.171Z,88.13
2018-11-10T00:08:03.858Z,95.70
2018-11-10T00:10:38.902Z,96.90
2018-11-10T00:13:07.583Z,74.23
2018-11-10T00:15:36.214Z,80.90
2018-11-10T00:18:05.343Z,74.43
2018-11-10T00:20:34.096Z,72.50
2018-11-10T00:23:02.876Z,69.90
2018-11-10T00:25:31.529Z,76.10
2018-11-10T00:28:00.262Z,62.33
2018-11-10T00:30:28.936Z,67.23
2018-11-10T00:32:57.705Z,67.37
2018-11-10T00:35:26.410Z,65.70
2018-11-10T00:37:55.122Z,67.23
2018-11-10T00:40:23.849Z,75.50
2018-11-10T00:42:52.576Z,70.17
2018-11-10T00:45:21.273Z,73.60
2018-11-10T00:47:49.964Z,74.77
2018-11-10T00:50:18.647Z,67.27
2018-11-10T00:52:47.371Z,68.03
2018-11-10T00:55:16.124Z,66.67
2018-11-10T00:57:44.816Z,63.30
2018-11-10T01:00:13.964Z,59.43
2018-11-10T01:02:43.948Z,64.20
2018-11-10T01:05:12.717Z,62.33
2018-11-10T01:07:41.705Z,56.70
2018-11-10T01:10:11.763Z,56.47
2018-11-10T01:12:40.620Z,57.10
2018-11-10T01:15:11.535Z,56.93
2018-11-10T01:17:40.502Z,60.47
2018-11-10T01:20:10.221Z,63.83
2018-11-10T01:22:39.069Z,68.10
2018-11-10T01:25:09.101Z,63.80
2018-11-10T01:27:37.966Z,66.00
2018-11-10T01:30:08.838Z,58.10
2018-11-10T01:32:37.548Z,58.13
2018-11-10T01:35:06.416Z,51.90
2018-11-10T01:37:35.155Z,52.53
2018-11-10T01:40:03.903Z,53.23
2018-11-10T01:42:32.587Z,59.27
2018-11-10T01:45:01.351Z,58.00
2018-11-10T01:47:30.057Z,57.80
2018-11-10T01:49:59.115Z,56.03
2018-11-10T01:52:27.802Z,58.00
2018-11-10T01:54:56.466Z,61.67
2018-11-10T01:57:25.138Z,60.17
2018-11-10T01:59:53.766Z,59.90
2018-11-10T02:02:22.528Z,60.97
2018-11-10T02:04:51.221Z,55.60
2018-11-10T02:07:19.944Z,65.20
2018-11-10T02:09:48.597Z,56.33
2018-11-10T02:12:17.325Z,54.27
2018-11-10T02:14:46.009Z,57.50
2018-11-10T02:17:14.704Z,56.40
2018-11-10T02:19:43.484Z,57.80
2018-11-10T02:22:12.304Z,58.30
2018-11-10T02:24:40.997Z,57.67
2018-11-10T02:27:13.967Z,63.37
2018-11-10T02:29:42.633Z,48.57
2018-11-10T02:32:11.357Z,57.60
2018-11-10T02:34:40.076Z,58.47
2018-11-10T02:37:08.774Z,60.00
2018-11-10T02:39:37.454Z,50.07
2018-11-10T02:42:06.247Z,55.37
2018-11-10T02:44:34.922Z,48.90
2018-11-10T02:47:03.680Z,51.83
2018-11-10T02:49:32.363Z,46.37
2018-11-10T02:52:01.204Z,45.10
2018-11-10T02:54:29.867Z,47.90
2018-11-10T02:56:58.568Z,46.80
2018-11-10T02:59:27.228Z,42.00
2018-11-10T03:01:55.931Z,41.60
2018-11-10T03:04:24.626Z,42.10
2018-11-10T03:06:53.344Z,38.60
2018-11-10T03:09:22.153Z,45.33
2018-11-10T03:11:50.851Z,48.50
2018-11-10T03:14:19.514Z,48.83
2018-11-10T03:16:48.221Z,49.40
2018-11-10T03:19:16.911Z,46.83
2018-11-10T03:21:45.596Z,55.40
2018-11-10T03:24:14.289Z,51.00
2018-11-10T03:26:42.973Z,50.00
2018-11-10T03:29:11.644Z,43.33
2018-11-10T03:31:40.439Z,49.00
2018-11-10T03:34:09.161Z,46.17
2018-11-10T03:36:37.835Z,48.80
2018-11-10T03:39:09.012Z,50.77
2018-11-10T03:41:37.688Z,47.57
2018-11-10T03:44:06.558Z,47.17
2018-11-10T03:46:35.231Z,54.03
2018-11-10T03:49:04.014Z,45.80
2018-11-10T03:51:32.729Z,46.40
2018-11-10T03:54:01.723Z,45.30
2018-11-10T03:56:30.429Z,43.57
2018-11-10T03:58:59.145Z,43.07
2018-11-10T04:01:27.857Z,39.60
2018-11-10T04:03:56.571Z,41.53
2018-11-10T04:06:25.276Z,40.83
2018-11-10T04:08:53.983Z,38.57
2018-11-10T04:11:22.795Z,37.67
2018-11-10T04:13:51.478Z,40.17
2018-11-10T04:16:20.212Z,39.90
2018-11-10T04:18:48.908Z,40.10
2018-11-10T04:21:17.653Z,50.90
2018-11-10T04:23:46.307Z,52.80
2018-11-10T04:26:15.018Z,51.50
2018-11-10T04:28:43.721Z,48.07
2018-11-10T04:31:12.368Z,55.43
2018-11-10T04:33:41.060Z,52.97
2018-11-10T04:36:09.795Z,50.13
2018-11-10T04:38:38.526Z,50.83
2018-11-10T04:41:07.477Z,50.23
2018-11-10T04:43:36.139Z,58.17
2018-11-10T04:46:04.794Z,52.47
2018-11-10T04:48:40.823Z,52.00
2018-11-10T04:51:09.579Z,53.10
2018-11-10T04:53:38.219Z,52.30
2018-11-10T04:56:06.946Z,47.37
2018-11-10T04:58:35.649Z,47.47
2018-11-10T05:01:04.495Z,47.80
2018-11-10T05:03:33.163Z,44.30
2018-11-10T05:06:01.873Z,50.10
2018-11-10T05:08:30.544Z,49.83
2018-11-10T05:10:59.217Z,47.77
2018-11-10T05:13:27.963Z,56.80
2018-11-10T05:15:56.678Z,53.90
2018-11-10T05:18:25.351Z,49.20
2018-11-10T05:20:54.081Z,44.73
2018-11-10T05:23:22.839Z,41.50
2018-11-10T05:25:51.489Z,46.83
2018-11-10T05:28:20.198Z,48.40
2018-11-10T05:30:48.832Z,53.00
2018-11-10T05:33:23.968Z,41.80
2018-11-10T05:35:52.700Z,48.00
2018-11-10T05:38:21.396Z,51.00
2018-11-10T05:40:50.037Z,48.20
2018-11-10T05:43:18.756Z,49.47
2018-11-10T05:45:47.381Z,42.30
2018-11-10T05:48:16.075Z,43.47
2018-11-10T05:50:44.789Z,40.67
2018-11-10T05:53:13.471Z,45.80
2018-11-10T05:55:42.183Z,53.80
2018-11-10T05:58:10.921Z,42.10
2018-11-10T06:00:39.597Z,42.73
2018-11-10T06:03:08.409Z,48.23
2018-11-10T06:05:37.059Z,47.57
2018-11-10T06:08:06.093Z,48.40
2018-11-10T06:10:34.779Z,48.27
2018-11-10T06:13:03.653Z,44.67
2018-11-10T06:15:32.329Z,39.37
2018-11-10T06:18:01.170Z,37.67
2018-11-10T06:20:29.811Z,34.97
2018-11-10T06:22:58.511Z,34.00
2018-11-10T06:25:27.228Z,38.17
2018-11-10T06:27:55.900Z,37.83
2018-11-10T06:30:27.586Z,37.23
2018-11-10T06:32:56.260Z,41.10
2018-11-10T06:35:24.974Z,43.60
2018-11-10T06:37:53.936Z,41.10
2018-11-10T06:40:22.690Z,38.10
2018-11-10T06:42:51.317Z,37.13
2018-11-10T06:45:20.260Z,38.17
2018-11-10T06:47:48.908Z,40.27
2018-11-10T06:50:17.570Z,37.47
2018-11-10T06:52:46.242Z,32.43
2018-11-10T06:55:14.968Z,40.87
2018-11-10T06:57:43.641Z,35.53
2018-11-10T07:00:14.125Z,37.47
2018-11-10T07:02:43.225Z,39.43
2018-11-10T07:05:12.739Z,34.03
2018-11-10T07:07:41.526Z,44.30
2018-11-10T07:10:10.577Z,38.70
2018-11-10T07:12:39.305Z,38.20
2018-11-10T07:15:08.619Z,48.70
2018-11-10T07:17:37.378Z,47.27
2018-11-10T07:20:06.421Z,37.17
2018-11-10T07:22:35.116Z,34.07
2018-11-10T07:25:03.920Z,35.97
2018-11-10T07:27:32.584Z,39.90
2018-11-10T07:30:01.257Z,38.47
2018-11-10T07:32:29.969Z,38.57
2018-11-10T07:34:58.629Z,35.27
2018-11-10T07:37:27.396Z,36.53
2018-11-10T07:39:56.042Z,33.77
2018-11-10T07:42:24.798Z,29.57
2018-11-10T07:44:53.501Z,28.20
2018-11-10T07:47:22.245Z,33.33
2018-11-10T07:49:50.889Z,31.60
2018-11-10T07:52:19.564Z,31.40
2018-11-10T07:54:48.196Z,32.30
2018-11-10T07:57:17.153Z,33.03
2018-11-10T07:59:45.821Z,30.87
2018-11-10T08:02:14.557Z,32.70
2018-11-10T08:04:43.272Z,30.50
2018-11-10T08:07:11.946Z,28.93
2018-11-10T08:09:40.898Z,26.30
2018-11-10T08:12:09.570Z,30.30
2018-11-10T08:14:38.196Z,28.63
2018-11-10T08:17:07.249Z,30.90
2018-11-10T08:19:35.939Z,31.07
2018-11-10T08:22:04.695Z,26.90
2018-11-10T08:24:33.436Z,28.87
2018-11-10T08:27:02.276Z,30.13
2018-11-10T08:29:31.021Z,32.40
2018-11-10T08:31:59.756Z,30.80
2018-11-10T08:34:28.439Z,28.63
2018-11-10T08:36:57.124Z,31.53
2018-11-10T08:39:25.857Z,29.77
2018-11-10T08:41:54.563Z,29.97
2018-11-10T08:44:23.232Z,26.47
2018-11-10T08:46:51.932Z,28.77
2018-11-10T08:49:20.698Z,27.77
2018-11-10T08:51:49.425Z,24.93
2018-11-10T08:54:18.096Z,28.13
2018-11-10T08:56:46.966Z,26.00
2018-11-10T08:59:15.706Z,25.60
2018-11-10T09:01:44.329Z,23.33
2018-11-10T09:04:13.061Z,23.20
2018-11-10T09:06:41.735Z,23.43
2018-11-10T09:09:11.092Z,22.90
2018-11-10T09:11:39.735Z,20.77
2018-11-10T09:14:14.682Z,22.63
2018-11-10T09:16:43.349Z,26.13
2018-11-10T09:19:12.036Z,23.07
2018-11-10T09:21:40.690Z,24.20
2018-11-10T09:24:09.411Z,26.90
2018-11-10T09:26:38.135Z,21.77
2018-11-10T09:29:07.249Z,22.30
2018-11-10T09:31:35.948Z,22.50
2018-11-10T09:34:04.773Z,21.03
2018-11-10T09:36:33.713Z,22.93
2018-11-10T09:39:02.504Z,21.67
2018-11-10T09:41:31.314Z,20.23
2018-11-10T09:43:59.976Z,20.27
2018-11-10T09:46:29.019Z,19.97
2018-11-10T09:48:57.746Z,19.87
2018-11-10T09:51:26.571Z,18.63
2018-11-10T09:53:55.354Z,18.77
2018-11-10T09:56:24.085Z,18.23
2018-11-10T09:58:52.768Z,17.70
2018-11-10T10:01:21.661Z,15.90
2018-11-10T10:03:50.559Z,17.13
2018-11-10T10:06:19.419Z,20.03
2018-11-10T10:08:49.454Z,15.77
2018-11-10T10:11:18.227Z,16.47
2018-11-10T10:13:46.969Z,14.77
2018-11-10T10:16:15.725Z,16.00
2018-11-10T10:18:44.403Z,16.60
2018-11-10T10:21:13.101Z,18.47
2018-11-10T10:23:41.861Z,17.40
2018-11-10T10:26:10.697Z,16.00
2018-11-10T10:28:39.549Z,17.63
2018-11-10T10:31:08.141Z,19.63
2018-11-10T10:33:36.829Z,14.07
2018-11-10T10:36:05.781Z,21.43
2018-11-10T10:38:34.432Z,17.33
2018-11-10T10:41:03.142Z,15.97
2018-11-10T10:43:31.910Z,16.60
2018-11-10T10:46:00.812Z,16.73
2018-11-10T10:48:29.716Z,19.13
2018-11-10T10:50:58.564Z,16.00
2018-11-10T10:53:27.574Z,17.10
2018-11-10T10:55:56.457Z,19.80
2018-11-10T10:58:25.192Z,18.63
2018-11-10T11:00:59.116Z,17.67
2018-11-10T11:03:33.035Z,18.07
2018-11-10T11:06:02.860Z,18.23
2018-11-10T11:08:31.936Z,21.53
2018-11-10T11:11:00.693Z,20.20
2018-11-10T11:13:29.369Z,26.37
2018-11-10T11:15:58.161Z,20.23
2018-11-10T11:18:26.945Z,18.93
2018-11-10T11:20:55.797Z,20.83
2018-11-10T11:23:25.602Z,25.77
2018-11-10T11:25:54.434Z,22.07
2018-11-10T11:28:23.204Z,22.73
2018-11-10T11:30:52.288Z,24.23
2018-11-10T11:33:20.978Z,26.60
2018-11-10T11:35:49.645Z,24.00
2018-11-10T11:38:18.340Z,23.87
2018-11-10T11:40:47.229Z,27.10
2018-11-10T11:43:15.907Z,24.67
2018-11-10T11:45:44.695Z,22.37
2018-11-10T11:48:13.601Z,27.10
2018-11-10T11:50:42.369Z,24.63
2018-11-10T11:53:11.152Z,24.47
2018-11-10T11:55:39.874Z,28.00
2018-11-10T11:58:08.781Z,26.20
2018-11-10T12:00:37.455Z,25.13
2018-11-10T12:03:06.326Z,28.43
2018-11-10T12:05:35.183Z,25.10
2018-11-10T12:08:03.881Z,29.20
2018-11-10T12:10:32.574Z,26.47
2018-11-10T12:13:01.373Z,32.30
2018-11-10T12:15:30.451Z,28.57
2018-11-10T12:17:59.141Z,27.67
2018-11-10T12:20:28.046Z,27.00
2018-11-10T12:22:57.149Z,28.83
2018-11-10T12:25:26.016Z,28.10
2018-11-10T12:27:55.089Z,27.23
2018-11-10T12:30:23.849Z,26.00
2018-11-10T12:32:52.549Z,30.63
2018-11-10T12:35:21.450Z,28.20
2018-11-10T12:37:50.171Z,25.53
2018-11-10T12:40:19.964Z,26.20
2018-11-10T12:42:48.781Z,25.60
2018-11-10T12:45:17.961Z,28.77
2018-11-10T12:47:47.164Z,26.33
2018-11-10T12:50:16.439Z,28.17
2018-11-10T12:52:46.010Z,31.27
2018-11-10T12:55:15.936Z,27.47
2018-11-10T12:57:45.695Z,28.33
2018-11-10T13:00:15.877Z,26.73
2018-11-10T13:02:45.040Z,37.97
2018-11-10T13:05:13.916Z,28.33
2018-11-10T13:07:44.424Z,28.67
2018-11-10T13:10:13.407Z,37.90
2018-11-10T13:12:42.934Z,26.83
2018-11-10T13:15:11.926Z,27.30
2018-11-10T13:17:40.961Z,28.07
2018-11-10T13:20:12.037Z,26.67
2018-11-10T13:22:40.929Z,26.60
2018-11-10T13:25:10.940Z,28.50
2018-11-10T13:27:39.947Z,31.63
2018-11-10T13:30:10.258Z,31.80
2018-11-10T13:32:39.265Z,26.53
2018-11-10T13:35:09.170Z,29.63
2018-11-10T13:37:37.920Z,32.00
2018-11-10T13:40:07.605Z,29.73
2018-11-10T13:42:36.592Z,29.23
2018-11-10T13:45:06.649Z,28.13
2018-11-10T13:47:35.365Z,30.40
2018-11-10T13:50:04.418Z,30.63
2018-11-10T13:52:33.547Z,30.03
2018-11-10T13:55:02.134Z,28.57
2018-11-10T13:57:30.896Z,30.50
2018-11-10T13:59:59.879Z,29.07
2018-11-10T14:02:28.668Z,29.13
2018-11-10T14:04:57.380Z,33.10
2018-11-10T14:07:26.146Z,30.00
2018-11-10T14:09:54.839Z,27.70
2018-11-10T14:12:23.633Z,30.60
2018-11-10T14:14:52.305Z,31.07
2018-11-10T14:17:21.174Z,29.40
2018-11-10T14:19:49.941Z,28.50
2018-11-10T14:22:18.733Z,30.63
2018-11-10T14:24:47.446Z,37.37
2018-11-10T14:27:16.215Z,40.10
2018-11-10T14:29:44.944Z,38.90
2018-11-10T14:32:13.780Z,40.70
2018-11-10T14:34:42.569Z,47.07
2018-11-10T14:37:11.432Z,45.80
2018-11-10T14:39:40.104Z,53.40
2018-11-10T14:42:08.906Z,52.37
2018-11-10T14:44:37.681Z,53.40
2018-11-10T14:47:06.475Z,51.63
2018-11-10T14:49:35.143Z,52.57
2018-11-10T14:52:04.052Z,61.27
2018-11-10T14:54:33.012Z,54.43
2018-11-10T14:57:01.908Z,54.47
2018-11-10T14:59:30.608Z,63.10
2018-11-10T15:01:59.378Z,53.33
2018-11-10T15:04:28.060Z,56.50
2018-11-10T15:06:56.821Z,60.70
2018-11-10T15:09:25.553Z,58.70
2018-11-10T15:11:54.462Z,55.37
2018-11-10T15:14:23.216Z,59.93
2018-11-10T15:16:52.088Z,54.30
2018-11-10T15:19:20.766Z,64.03
2018-11-10T15:21:49.471Z,56.17
2018-11-10T15:24:18.088Z,58.03
2018-11-10T15:26:46.754Z,61.40
2018-11-10T15:29:15.446Z,66.33
2018-11-10T15:31:44.045Z,56.53
2018-11-10T15:34:12.780Z,53.10
2018-11-10T15:36:41.642Z,61.90
2018-11-10T15:39:10.380Z,57.97
2018-11-10T15:41:39.036Z,58.80
2018-11-10T15:44:07.901Z,63.30
2018-11-10T15:46:36.534Z,67.40
2018-11-10T15:49:05.336Z,63.60
2018-11-10T15:51:33.950Z,64.40
2018-11-10T15:54:02.966Z,73.87
2018-11-10T15:56:31.775Z,81.93
2018-11-10T15:59:00.558Z,90.80
2018-11-10T16:01:29.945Z,77.60
2018-11-10T16:03:58.658Z,76.80
2018-11-10T16:06:27.328Z,77.27
2018-11-10T16:08:56.500Z,78.27
2018-11-10T16:11:25.429Z,88.93
2018-11-10T16:13:54.214Z,76.83
2018-11-10T16:16:22.962Z,75.43
2018-11-10T16:18:51.756Z,69.73
2018-11-10T16:21:22.387Z,69.33
2018-11-10T16:23:51.133Z,64.57
2018-11-10T16:26:19.823Z,70.33
2018-11-10T16:28:48.560Z,71.73
2018-11-10T16:31:17.301Z,67.03
2018-11-10T16:33:45.964Z,73.40
2018-11-10T16:36:14.749Z,70.93
2018-11-10T16:38:43.456Z,69.47
2018-11-10T16:41:12.266Z,70.47
2018-11-10T16:43:41.024Z,74.73
2018-11-10T16:46:09.911Z,64.37
2018-11-10T16:48:38.919Z,70.60
2018-11-10T16:51:07.881Z,69.07
2018-11-10T16:53:36.617Z,61.47
2018-11-10T16:56:05.470Z,70.20
2018-11-10T16:58:34.598Z,60.40
2018-11-10T17:01:03.325Z,66.70
2018-11-10T17:03:31.988Z,61.40
2018-11-10T17:06:00.746Z,59.53
2018-11-10T17:08:29.522Z,60.30
2018-11-10T17:10:58.157Z,55.30
2018-11-10T17:13:26.918Z,57.07
2018-11-10T17:15:55.518Z,57.17
2018-11-10T17:18:24.268Z,60.67
2018-11-10T17:20:53.167Z,61.27
2018-11-10T17:23:21.981Z,56.93
2018-11-10T17:25:50.620Z,56.43
2018-11-10T17:28:19.430Z,61.37
2018-11-10T17:30:48.080Z,65.03
2018-11-10T17:33:17.019Z,65.23
2018-11-10T17:35:45.646Z,58.70
2018-11-10T17:38:14.319Z,67.20
2018-11-10T17:40:42.972Z,59.27
2018-11-10T17:43:11.648Z,70.03
2018-11-10T17:45:40.281Z,63.70
2018-11-10T17:48:09.079Z,61.67
2018-11-10T17:50:37.762Z,61.47
2018-11-10T17:53:06.687Z,72.00
2018-11-10T17:55:35.360Z,67.20
2018-11-10T17:58:04.040Z,67.57
2018-11-10T18:00:32.709Z,60.17
2018-11-10T18:03:01.393Z,67.20
2018-11-10T18:05:30.060Z,61.57
2018-11-10T18:07:58.751Z,70.67
2018-11-10T18:10:27.645Z,60.00
2018-11-10T18:12:56.400Z,62.53
2018-11-10T18:15:26.137Z,66.50
2018-11-10T18:17:54.798Z,71.53
2018-11-10T18:20:23.496Z,85.63
2018-11-10T18:22:52.176Z,65.97
2018-11-10T18:25:21.229Z,65.20
2018-11-10T18:27:50.026Z,71.30
2018-11-10T18:30:18.668Z,74.20
2018-11-10T18:32:47.657Z,76.63
2018-11-10T18:35:16.388Z,82.10
2018-11-10T18:37:45.049Z,69.67
2018-11-10T18:40:13.733Z,79.60
2018-11-10T18:42:42.432Z,79.13
2018-11-10T18:45:12.069Z,87.67
2018-11-10T18:47:41.159Z,72.30
2018-11-10T18:50:11.991Z,75.50
2018-11-10T18:52:40.755Z,87.10
2018-11-10T18:55:09.427Z,79.30
2018-11-10T18:57:38.434Z,81.27
2018-11-10T19:00:09.409Z,79.83
2018-11-10T19:02:38.330Z,71.07
2018-11-10T19:05:08.406Z,76.13
2018-11-10T19:07:37.403Z,71.77
2018-11-10T19:10:07.582Z,77.50
2018-11-10T19:12:36.445Z,77.17
2018-11-10T19:15:05.927Z,74.93
2018-11-10T19:17:34.593Z,80.60
2018-11-10T19:20:03.435Z,74.10
2018-11-10T19:22:32.190Z,76.10
2018-11-10T19:25:01.151Z,80.57
2018-11-10T19:27:29.937Z,75.37
2018-11-10T19:29:58.643Z,77.83
2018-11-10T19:32:27.449Z,81.07
2018-11-10T19:34:56.070Z,83.20
2018-11-10T19:37:24.861Z,118.37
2018-11-10T19:39:53.541Z,98.10
2018-11-10T19:42:22.302Z,178.03
2018-11-10T19:44:50.981Z,311.90
2018-11-10T19:47:19.694Z,118.97
2018-11-10T19:49:48.738Z,158.73
2018-11-10T19:52:19.075Z,142.73
2018-11-10T19:54:47.734Z,205.80
2018-11-10T19:57:16.501Z,192.67
2018-11-10T19:59:45.161Z,141.50
2018-11-10T20:02:13.881Z,219.83
2018-11-10T20:04:42.548Z,190.83
2018-11-10T20:07:11.251Z,192.67
2018-11-10T20:09:39.910Z,191.17
2018-11-10T20:12:08.619Z,186.77
2018-11-10T20:14:37.316Z,155.97
2018-11-10T20:17:06.114Z,158.43
2018-11-10T20:19:34.819Z,164.73
2018-11-10T20:22:03.583Z,139.30
2018-11-10T20:24:32.273Z,140.90
2018-11-10T20:27:01.389Z,170.30
2018-11-10T20:29:30.058Z,143.00
2018-11-10T20:31:58.773Z,144.67
2018-11-10T20:34:27.413Z,136.93
2018-11-10T20:36:56.102Z,129.07
2018-11-10T20:39:24.855Z,138.93
2018-11-10T20:41:53.578Z,151.90
2018-11-10T20:44:22.273Z,161.63
2018-11-10T20:46:51.106Z,122.13
2018-11-10T20:49:19.767Z,126.17
2018-11-10T20:51:48.741Z,109.57
2018-11-10T20:54:17.425Z,142.60
2018-11-10T20:56:46.119Z,140.93
2018-11-10T20:59:14.784Z,126.90
2018-11-10T21:01:43.504Z,119.43
2018-11-10T21:04:12.153Z,149.00
2018-11-10T21:06:41.082Z,132.80
2018-11-10T21:09:11.828Z,123.03
2018-11-10T21:11:40.582Z,120.40
2018-11-10T21:14:10.106Z,108.03
2018-11-10T21:22:41.926Z,159.97
2018-11-10T21:28:13.519Z,119.20
2018-11-10T21:30:42.270Z,104.23
2018-11-10T21:33:10.998Z,127.90
2018-11-10T21:35:40.869Z,152.77
2018-11-10T21:38:09.545Z,116.27
2018-11-10T21:40:38.248Z,153.27
2018-11-10T21:43:07.057Z,140.00
2018-11-10T21:45:35.867Z,115.67
2018-11-10T21:48:04.755Z,116.10
2018-11-10T21:50:33.608Z,115.90
2018-11-10T21:53:02.353Z,112.13
2018-11-10T21:55:31.362Z,121.50
2018-11-10T21:58:00.147Z,104.23
2018-11-10T22:00:28.820Z,133.17
2018-11-10T22:02:57.614Z,120.50
2018-11-10T22:05:26.354Z,113.07
2018-11-10T22:07:55.082Z,119.83
2018-11-10T22:10:24.056Z,115.03
2018-11-10T22:12:52.803Z,111.57
2018-11-10T22:15:22.678Z,96.30
2018-11-10T22:17:51.651Z,106.43
2018-11-10T22:20:21.737Z,105.33
2018-11-10T22:22:50.605Z,102.83
2018-11-10T22:25:19.462Z,113.60
2018-11-10T22:27:49.602Z,93.43
2018-11-10T22:30:19.445Z,120.20
2018-11-10T22:32:48.722Z,92.67
2018-11-10T22:35:17.494Z,92.00
2018-11-10T22:37:46.178Z,90.07
2018-11-10T22:40:16.996Z,80.50
2018-11-10T22:42:46.037Z,86.90
2018-11-10T22:45:16.046Z,78.53
2018-11-10T22:47:44.797Z,72.93
2018-11-10T22:50:15.352Z,95.07
2018-11-10T22:52:44.686Z,66.90
2018-11-10T22:55:13.495Z,78.80
2018-11-10T22:57:42.329Z,65.03
2018-11-10T23:00:15.666Z,68.10
2018-11-10T23:02:46.933Z,69.87
2018-11-10T23:05:16.008Z,60.97
2018-11-10T23:07:44.753Z,59.00
2018-11-10T23:10:14.232Z,65.83
2018-11-10T23:12:43.565Z,59.37
2018-11-10T23:15:12.544Z,83.60
2018-11-10T23:17:41.381Z,53.80
2018-11-10T23:20:17.540Z,50.50
2018-11-10T23:22:46.321Z,55.23
2018-11-10T23:25:16.306Z,57.43
2018-11-10T23:27:45.083Z,53.63
2018-11-10T23:30:21.171Z,55.00
2018-11-10T23:32:49.958Z,55.63
2018-11-10T23:35:18.864Z,52.73
2018-11-10T23:37:47.602Z,52.77
2018-11-10T23:40:16.993Z,51.50
2018-11-10T23:42:45.777Z,53.07
2018-11-10T23:45:15.054Z,50.97
2018-11-10T23:47:43.713Z,49.70
2018-11-10T23:50:13.656Z,44.60
2018-11-10T23:52:42.391Z,47.50
2018-11-10T23:55:12.082Z,43.53
2018-11-10T23:57:40.868Z,48.83
